createdAt,value
2023-03-26T00:04:01.978Z,7.39
2023-03-26T00:08:15.280Z,7.45
2023-03-26T00:12:28.024Z,7.42
2023-03-26T00:16:50.535Z,7.22
2023-03-26T00:21:06.346Z,7.09
2023-03-26T00:25:19.271Z,6.89
2023-03-26T00:29:34.070Z,6.83
2023-03-26T00:33:46.606Z,6.85
2023-03-26T00:37:59.251Z,6.81
2023-03-26T00:42:11.722Z,6.71
2023-03-26T00:46:29.392Z,6.84
2023-03-26T00:50:43.769Z,6.77
2023-03-26T00:55:06.923Z,6.86
2023-03-26T00:59:19.422Z,6.98
2023-03-26T01:03:37.038Z,6.93
2023-03-26T01:07:49.511Z,6.89
2023-03-26T01:12:07.469Z,6.85
2023-03-26T01:16:43.162Z,6.78
2023-03-26T01:21:06.110Z,6.84
2023-03-26T01:25:19.580Z,6.82
2023-03-26T01:29:45.586Z,6.89
2023-03-26T01:34:13.189Z,6.81
2023-03-26T01:39:06.266Z,6.83
2023-03-26T01:43:41.041Z,6.86
2023-03-26T01:47:54.108Z,6.70
2023-03-26T01:52:16.817Z,6.54
2023-03-26T01:56:58.152Z,6.48
2023-03-26T02:01:51.108Z,6.30
2023-03-26T02:06:45.840Z,6.22
2023-03-26T02:11:16.051Z,6.09
2023-03-26T02:15:29.053Z,6.20
2023-03-26T02:19:43.007Z,6.14
2023-03-26T02:24:03.768Z,6.04
2023-03-26T02:28:26.573Z,5.96
2023-03-26T02:32:39.723Z,6.04
2023-03-26T02:36:52.370Z,6.11
2023-03-26T02:41:14.865Z,5.93
2023-03-26T02:45:37.483Z,6.09
2023-03-26T02:49:50.067Z,5.92
2023-03-26T02:54:03.176Z,5.76
2023-03-26T02:58:18.212Z,5.70
2023-03-26T03:02:31.197Z,5.83
2023-03-26T03:06:45.467Z,5.76
2023-03-26T03:11:15.012Z,5.56
2023-03-26T03:15:29.019Z,5.56
2023-03-26T03:19:41.437Z,5.59
2023-03-26T03:23:55.725Z,5.47
2023-03-26T03:28:12.848Z,5.33
2023-03-26T03:32:26.075Z,5.30
2023-03-26T03:36:39.237Z,5.35
2023-03-26T03:40:51.994Z,5.46
2023-03-26T03:45:07.155Z,5.34
2023-03-26T03:49:19.629Z,5.48
2023-03-26T03:53:32.246Z,5.69
2023-03-26T03:57:44.956Z,5.65
2023-03-26T04:01:57.425Z,5.59
2023-03-26T04:06:11.798Z,5.80
2023-03-26T04:10:24.285Z,5.83
2023-03-26T04:14:37.089Z,6.06
2023-03-26T04:18:49.707Z,6.16
2023-03-26T04:23:02.219Z,6.17
2023-03-26T04:27:19.003Z,6.12
2023-03-26T04:31:31.855Z,6.11
2023-03-26T04:35:46.255Z,5.95
2023-03-26T04:39:58.908Z,5.82
2023-03-26T04:44:12.654Z,5.69
2023-03-26T04:48:25.251Z,5.54
2023-03-26T04:52:38.390Z,5.44
2023-03-26T04:57:06.447Z,5.41
2023-03-26T05:01:19.005Z,5.48
2023-03-26T05:05:31.630Z,5.50
2023-03-26T05:09:54.238Z,5.57
2023-03-26T05:14:06.761Z,5.53
2023-03-26T05:18:19.298Z,5.69
2023-03-26T05:22:31.852Z,5.70
2023-03-26T05:26:44.306Z,5.78
2023-03-26T05:30:57.105Z,5.82
2023-03-26T05:35:10.706Z,5.93
2023-03-26T05:39:34.412Z,6.01
2023-03-26T05:43:48.534Z,6.10
2023-03-26T05:48:01.491Z,6.35
2023-03-26T05:52:16.925Z,6.61
2023-03-26T05:56:30.041Z,6.33
2023-03-26T06:01:03.349Z,6.62
2023-03-26T06:05:15.844Z,6.75
2023-03-26T06:09:28.364Z,6.94
2023-03-26T06:13:42.332Z,6.97
2023-03-26T06:18:04.806Z,7.29
2023-03-26T06:22:17.303Z,7.34
2023-03-26T06:26:29.734Z,7.68
2023-03-26T06:30:47.567Z,7.72
2023-03-26T06:35:00.123Z,7.94
2023-03-26T06:39:12.664Z,8.26
2023-03-26T06:43:25.442Z,8.19
2023-03-26T06:47:37.991Z,8.17
2023-03-26T06:51:50.568Z,8.51
2023-03-26T06:56:04.015Z,8.41
2023-03-26T07:00:17.130Z,8.47
2023-03-26T07:04:29.607Z,8.85
2023-03-26T07:08:42.265Z,8.98
2023-03-26T07:12:54.783Z,9.04
2023-03-26T07:17:11.516Z,8.98
2023-03-26T07:21:24.477Z,8.97
2023-03-26T07:25:37.370Z,8.99
2023-03-26T07:30:16.484Z,9.18
2023-03-26T07:34:48.602Z,9.30
2023-03-26T07:39:41.917Z,9.33
2023-03-26T07:44:30.767Z,9.09
2023-03-26T07:48:48.652Z,8.75
2023-03-26T07:53:01.901Z,8.63
2023-03-26T07:57:33.234Z,8.65
2023-03-26T08:02:37.792Z,8.76
2023-03-26T08:07:04.883Z,8.92
2023-03-26T08:11:41.758Z,9.02
2023-03-26T08:16:07.439Z,9.07
2023-03-26T08:20:31.812Z,9.15
2023-03-26T08:25:05.447Z,9.57
2023-03-26T08:29:56.148Z,9.57
2023-03-26T08:34:13.145Z,9.96
2023-03-26T08:38:25.606Z,10.18
2023-03-26T08:43:17.406Z,9.91
2023-03-26T08:48:19.796Z,9.86
2023-03-26T08:53:05.896Z,10.14
2023-03-26T08:57:42.799Z,9.81
2023-03-26T09:02:28.329Z,9.90
2023-03-26T09:06:52.747Z,9.97
2023-03-26T09:11:23.896Z,9.67
2023-03-26T09:16:13.685Z,9.61
2023-03-26T09:20:46.410Z,9.43
2023-03-26T09:25:42.393Z,9.24
2023-03-26T09:30:32.326Z,9.18
2023-03-26T09:35:09.607Z,9.38
2023-03-26T09:39:47.973Z,9.70
2023-03-26T09:44:30.001Z,9.41
2023-03-26T09:49:29.479Z,9.21
2023-03-26T09:53:48.181Z,9.00
2023-03-26T09:58:19.801Z,8.93
2023-03-26T10:03:08.877Z,9.36
2023-03-26T10:07:48.753Z,9.03
2023-03-26T10:12:19.698Z,9.40
2023-03-26T10:16:49.860Z,9.52
2023-03-26T10:21:52.160Z,9.66
2023-03-26T10:26:13.659Z,9.50
2023-03-26T10:30:48.933Z,9.30
2023-03-26T10:35:47.994Z,9.45
2023-03-26T10:40:25.231Z,9.36
2023-03-26T10:44:49.783Z,9.47
2023-03-26T10:49:57.621Z,9.41
2023-03-26T10:54:36.906Z,9.03
2023-03-26T10:58:50.408Z,8.90
2023-03-26T11:03:14.179Z,8.93
2023-03-26T11:07:48.751Z,8.88
2023-03-26T11:12:27.194Z,8.61
2023-03-26T11:16:56.990Z,8.77
2023-03-26T11:21:19.733Z,9.48
2023-03-26T11:25:50.719Z,9.78
2023-03-26T11:30:24.592Z,9.95
2023-03-26T11:34:51.235Z,9.83
2023-03-26T11:39:09.645Z,10.58
2023-03-26T11:43:30.966Z,10.95
2023-03-26T11:48:19.897Z,10.47
2023-03-26T11:52:33.214Z,10.71
2023-03-26T11:57:05.888Z,10.65
2023-03-26T12:01:32.721Z,11.27
2023-03-26T12:05:54.328Z,10.70
2023-03-26T12:10:17.758Z,10.26
2023-03-26T12:14:35.295Z,10.46
2023-03-26T12:19:06.273Z,11.27
2023-03-26T12:23:56.933Z,11.48
2023-03-26T12:28:16.481Z,11.12
2023-03-26T12:37:02.273Z,11.25
2023-03-26T12:43:19.755Z,11.29
2023-03-26T12:47:45.993Z,10.86
2023-03-26T12:51:02.334Z,10.87
2023-03-26T12:55:54.957Z,11.03
2023-03-26T13:00:46.085Z,10.99
2023-03-26T13:05:35.318Z,10.74
2023-03-26T13:10:02.628Z,10.59
2023-03-26T13:14:59.513Z,10.59
2023-03-26T13:19:23.703Z,10.53
2023-03-26T13:24:30.045Z,10.31
2023-03-26T13:29:00.998Z,9.31
2023-03-26T13:33:34.929Z,8.13
2023-03-26T13:38:16.261Z,8.11
2023-03-26T13:42:38.653Z,7.98
2023-03-26T13:47:01.482Z,7.85
2023-03-26T13:51:32.699Z,8.01
2023-03-26T13:55:51.170Z,8.21
2023-03-26T14:00:22.225Z,8.11
2023-03-26T14:04:41.511Z,8.16
2023-03-26T14:09:07.497Z,8.00
2023-03-26T14:13:29.244Z,7.15
2023-03-26T14:18:21.656Z,6.71
2023-03-26T14:22:57.254Z,6.45
2023-03-26T14:27:34.907Z,6.87
2023-03-26T14:32:12.222Z,7.28
2023-03-26T14:36:53.696Z,7.65
2023-03-26T14:41:31.067Z,7.42
2023-03-26T14:46:05.535Z,8.05
2023-03-26T14:51:05.080Z,8.07
2023-03-26T14:55:49.539Z,8.23
2023-03-26T15:00:20.839Z,7.83
2023-03-26T15:04:55.102Z,7.84
2023-03-26T15:09:58.210Z,8.24
2023-03-26T15:14:32.095Z,7.89
2023-03-26T15:19:38.789Z,8.08
2023-03-26T15:24:44.140Z,8.50
2023-03-26T15:30:09.597Z,8.37
2023-03-26T15:34:58.024Z,8.75
2023-03-26T15:40:10.101Z,8.59
2023-03-26T15:44:25.172Z,8.58
2023-03-26T15:49:05.912Z,8.53
2023-03-26T15:53:53.320Z,8.65
2023-03-26T15:58:12.981Z,8.83
2023-03-26T16:03:11.846Z,8.41
2023-03-26T16:07:35.669Z,8.18
2023-03-26T16:12:34.404Z,8.13
2023-03-26T16:17:02.875Z,8.53
2023-03-26T16:21:47.297Z,8.91
2023-03-26T16:26:08.892Z,9.02
2023-03-26T16:30:31.657Z,9.07
2023-03-26T16:34:46.967Z,9.14
2023-03-26T16:39:05.641Z,9.02
2023-03-26T16:44:05.011Z,8.95
2023-03-26T16:48:42.388Z,8.79
2023-03-26T16:53:21.493Z,8.73
2023-03-26T16:57:56.847Z,8.91
2023-03-26T17:02:28.651Z,8.79
2023-03-26T17:07:24.310Z,8.45
2023-03-26T17:12:15.153Z,8.40
2023-03-26T17:16:42.091Z,8.36
2023-03-26T17:21:02.410Z,8.14
2023-03-26T17:25:21.238Z,8.21
2023-03-26T17:29:53.071Z,8.20
2023-03-26T17:34:39.416Z,8.09
2023-03-26T17:39:02.305Z,8.08
2023-03-26T17:43:53.393Z,8.11
2023-03-26T17:48:22.432Z,8.17
2023-03-26T17:52:49.736Z,8.42
2023-03-26T17:57:11.209Z,8.40
2023-03-26T18:01:33.288Z,8.33
2023-03-26T18:05:48.654Z,8.31
2023-03-26T18:10:23.427Z,8.02
2023-03-26T18:15:08.545Z,7.71
2023-03-26T18:19:23.621Z,7.57
2023-03-26T18:23:45.992Z,7.47
2023-03-26T18:27:58.963Z,7.36
2023-03-26T18:32:11.467Z,7.20
2023-03-26T18:36:28.458Z,7.00
2023-03-26T18:40:43.327Z,6.94
2023-03-26T18:45:01.171Z,6.92
2023-03-26T18:49:17.674Z,6.73
2023-03-26T18:53:40.092Z,6.78
2023-03-26T18:57:52.615Z,6.63
2023-03-26T19:02:12.778Z,6.59
2023-03-26T19:06:26.760Z,6.38
2023-03-26T19:10:39.502Z,6.33
2023-03-26T19:15:17.197Z,6.19
2023-03-26T19:19:41.426Z,6.16
2023-03-26T19:23:55.815Z,6.15
2023-03-26T19:28:18.031Z,6.16
2023-03-26T19:32:33.506Z,6.01
2023-03-26T19:37:03.725Z,6.07
2023-03-26T19:41:24.143Z,6.18
2023-03-26T19:45:37.060Z,5.95
2023-03-26T19:50:29.835Z,6.05
2023-03-26T19:55:16.606Z,6.09
2023-03-26T19:59:29.582Z,6.16
2023-03-26T20:03:44.855Z,6.16
2023-03-26T20:08:01.108Z,6.27
2023-03-26T20:12:14.325Z,6.22
2023-03-26T20:16:35.839Z,6.20
2023-03-26T20:20:48.332Z,6.30
2023-03-26T20:25:00.818Z,6.23
2023-03-26T20:29:15.532Z,6.23
2023-03-26T20:33:38.131Z,6.23
2023-03-26T20:37:51.495Z,6.21
2023-03-26T20:42:04.207Z,6.10
2023-03-26T20:46:20.893Z,6.07
2023-03-26T20:50:35.767Z,6.12
2023-03-26T20:54:48.343Z,6.11
2023-03-26T20:59:11.861Z,6.02
2023-03-26T21:03:24.493Z,5.72
2023-03-26T21:07:37.229Z,5.69
2023-03-26T21:12:06.714Z,5.65
2023-03-26T21:16:19.713Z,5.65
2023-03-26T21:20:33.531Z,5.62
2023-03-26T21:25:20.433Z,5.73
2023-03-26T21:29:33.588Z,5.58
2023-03-26T21:33:48.535Z,5.77
2023-03-26T21:38:02.311Z,5.89
2023-03-26T21:42:15.210Z,5.72
2023-03-26T21:46:28.476Z,5.87
2023-03-26T21:50:41.957Z,5.92
2023-03-26T21:54:54.876Z,5.86
2023-03-26T21:59:52.445Z,5.87
2023-03-26T22:04:31.639Z,5.77
2023-03-26T22:08:54.281Z,5.66
2023-03-26T22:13:06.772Z,5.73
2023-03-26T22:17:19.953Z,5.74
2023-03-26T22:21:34.505Z,5.78
2023-03-26T22:25:47.186Z,5.76
2023-03-26T22:29:59.654Z,5.65
2023-03-26T22:34:13.996Z,5.72
2023-03-26T22:38:37.565Z,5.67
2023-03-26T22:42:49.997Z,5.65
2023-03-26T22:47:02.460Z,5.77
2023-03-26T22:51:16.108Z,5.78
2023-03-26T22:55:29.981Z,5.75
2023-03-26T22:59:42.828Z,5.86
2023-03-26T23:03:55.819Z,5.59
2023-03-26T23:08:12.475Z,5.64
2023-03-26T23:12:25.021Z,5.56
2023-03-26T23:16:39.155Z,5.58
2023-03-26T23:20:56.220Z,5.48
2023-03-26T23:25:10.895Z,5.32
2023-03-26T23:29:23.381Z,5.36
2023-03-26T23:33:39.053Z,5.48
2023-03-26T23:38:02.973Z,5.34
2023-03-26T23:42:28.787Z,5.22
2023-03-26T23:46:45.129Z,5.25
2023-03-26T23:51:03.266Z,5.20
2023-03-26T23:55:17.433Z,5.20
2023-03-26T23:59:29.921Z,5.18
